Time;durP1;ratioP1;P1;durP2;ratioP2;P2;SDS_P1;SDS_P2;PMS_P1;PMS_P2;Temp;Humidity;BMP_temperature;BMP_pressure;BME280_temperature;BME280_humidity;BME280_pressure;Samples;Min_cycle;Max_cycle;Signal;HPM_P1;HPM_P2
2023/02/08 00:02:42;;;;;;;28.65;15.82;;;-5.10;1.00;;;;;;6115228;23;20022;-88
2023/02/08 00:05:30;;;;;;;30.52;15.27;;;-5.10;1.00;;;;;;6122115;23;20090;-89
2023/02/08 00:08:18;;;;;;;28.13;13.70;;;-5.00;1.00;;;;;;6128143;23;20056;-88
2023/02/08 00:11:06;;;;;;;24.77;13.55;;;-4.90;9.40;;;;;;6106475;23;20095;-89
2023/02/08 00:13:53;;;;;;;25.17;13.45;;;-4.80;4.80;;;;;;6106140;23;20030;-88
2023/02/08 00:16:41;;;;;;;25.00;13.85;;;-4.70;1.00;;;;;;6126222;23;20029;-89
2023/02/08 00:19:30;;;;;;;26.17;12.35;;;-4.60;1.00;;;;;;6104954;23;20033;-88
2023/02/08 00:22:19;;;;;;;29.02;12.82;;;-4.60;1.00;;;;;;6108593;23;20030;-88
2023/02/08 00:25:12;;;;;;;23.85;12.18;;;-4.50;1.00;;;;;;6110698;23;20109;-89
2023/02/08 00:28:00;;;;;;;21.13;11.98;;;-4.50;1.00;;;;;;6127616;23;20100;-90
2023/02/08 00:30:50;;;;;;;22.63;12.00;;;-4.50;1.00;;;;;;6087644;23;20022;-87
2023/02/08 00:33:37;;;;;;;21.80;10.88;;;-4.50;1.00;;;;;;6106152;23;20032;-89
2023/02/08 00:36:25;;;;;;;22.92;12.02;;;-4.50;1.00;;;;;;6109821;23;20027;-88
2023/02/08 00:39:12;;;;;;;20.90;11.98;;;-4.50;1.00;;;;;;6126608;23;20026;-88
2023/02/08 00:42:00;;;;;;;24.48;12.35;;;-4.50;1.00;;;;;;6106886;23;20171;-89
2023/02/08 00:44:47;;;;;;;24.35;12.07;;;-4.50;99.90;;;;;;6105152;23;20037;-89
2023/02/08 00:47:34;;;;;;;21.08;11.05;;;-4.50;99.90;;;;;;6103996;23;20087;-89
2023/02/08 00:50:21;;;;;;;25.05;12.50;;;-4.50;99.90;;;;;;6125007;23;20085;-89
2023/02/08 00:53:10;;;;;;;28.88;12.77;;;-4.60;99.90;;;;;;6124047;23;20029;-88
2023/02/08 00:55:57;;;;;;;22.05;12.40;;;-4.70;99.90;;;;;;6127366;23;20025;-89
2023/02/08 00:58:44;;;;;;;25.27;12.35;;;-4.80;99.90;;;;;;6127661;23;20018;-89
2023/02/08 01:01:32;;;;;;;25.70;12.15;;;-5.00;99.90;;;;;;6108117;23;20316;-90
2023/02/08 01:04:19;;;;;;;27.73;13.02;;;-5.20;99.90;;;;;;6116119;23;20022;-90
2023/02/08 01:07:07;;;;;;;26.42;13.25;;;-5.30;99.90;;;;;;6137125;23;20022;-90
2023/02/08 01:09:54;;;;;;;24.33;13.50;;;-5.40;99.90;;;;;;6117327;23;20360;-88
2023/02/08 01:12:42;;;;;;;25.80;13.57;;;-5.50;1.00;;;;;;6145163;23;20014;-88
2023/02/08 01:15:29;;;;;;;26.70;14.48;;;-5.50;1.00;;;;;;6145201;23;20439;-90
2023/02/08 01:18:16;;;;;;;25.40;13.07;;;-5.60;1.00;;;;;;6118087;23;20026;-90
2023/02/08 01:21:06;;;;;;;26.00;12.63;;;-5.70;1.00;;;;;;6139055;23;20025;-89
2023/02/08 01:23:53;;;;;;;25.45;13.05;;;-5.80;1.00;;;;;;6115082;23;20049;-90
2023/02/08 01:26:44;;;;;;;26.83;12.57;;;-6.00;1.00;;;;;;6104143;23;20079;-90
2023/02/08 01:29:31;;;;;;;25.48;13.55;;;-6.10;1.00;;;;;;6105347;23;20026;-90
2023/02/08 01:32:19;;;;;;;24.20;13.02;;;-6.10;1.00;;;;;;6112581;23;20286;-90
2023/02/08 01:35:06;;;;;;;27.05;12.82;;;-6.10;1.00;;;;;;6110985;23;20173;-89
2023/02/08 01:37:54;;;;;;;25.08;11.38;;;-6.10;1.00;;;;;;6106272;23;20030;-89
2023/02/08 01:40:42;;;;;;;28.70;13.15;;;-6.20;1.00;;;;;;6123527;23;20026;-88
2023/02/08 01:43:33;;;;;;;23.00;12.30;;;-6.30;1.00;;;;;;6125755;23;20048;-88
2023/02/08 01:46:22;;;;;;;;;;;-6.40;1.00;;;;;;6105739;23;20107;-90
2023/02/08 01:49:27;;;;;;;26.50;11.82;;;-6.40;1.00;;;;;;6104440;23;19916;-88
2023/02/08 01:52:18;;;;;;;25.90;12.77;;;-6.40;1.00;;;;;;6103996;23;20034;-89
2023/02/08 01:55:11;;;;;;;21.17;12.07;;;-6.30;1.00;;;;;;6103853;23;20088;-89
2023/02/08 01:58:02;;;;;;;24.73;12.50;;;-6.30;1.00;;;;;;6123683;23;20119;-89
2023/02/08 02:00:49;;;;;;;20.35;11.45;;;-6.30;1.00;;;;;;6114269;23;20072;-90
2023/02/08 02:03:37;;;;;;;24.42;12.98;;;-6.20;1.00;;;;;;6130446;23;20026;-89
2023/02/08 02:06:32;;;;;;;23.25;11.98;;;-6.10;1.00;;;;;;6106830;23;20026;-89
2023/02/08 02:09:22;;;;;;;27.63;11.90;;;-6.10;1.00;;;;;;6105697;23;20333;-88
2023/02/08 02:12:11;;;;;;;23.35;11.18;;;-6.10;1.00;;;;;;6105888;23;20056;-88
2023/02/08 02:15:01;;;;;;;25.70;11.30;;;-6.10;1.00;;;;;;6103629;23;20038;-88
2023/02/08 02:17:49;;;;;;;22.98;11.30;;;-6.30;1.00;;;;;;6105183;23;20033;-89
2023/02/08 02:21:06;;;;;;;21.77;10.80;;;-6.30;1.00;;;;;;6124688;23;20429;-89
2023/02/08 02:23:57;;;;;;;19.85;10.35;;;-6.40;1.00;;;;;;6124847;23;20039;-89
2023/02/08 02:27:06;;;;;;;21.88;10.77;;;-6.40;1.00;;;;;;6103683;23;20105;-90
2023/02/08 02:30:40;;;;;;;21.48;10.60;;;-6.40;1.00;;;;;;6126232;23;20041;-90
2023/02/08 02:33:34;;;;;;;20.23;10.48;;;-6.50;1.00;;;;;;6197358;23;20024;-89
2023/02/08 02:36:28;;;;;;;20.55;11.45;;;-6.50;1.00;;;;;;6111122;23;20026;-89
2023/02/08 02:39:53;;;;;;;23.73;11.18;;;-6.40;1.00;;;;;;6105332;23;20026;-89
2023/02/08 02:46:36;;;;;;;21.02;10.75;;;-6.50;1.00;;;;;;6125127;23;20033;-89
2023/02/08 02:49:32;;;;;;;21.42;10.63;;;-6.60;1.00;;;;;;6103824;23;20403;-89
2023/02/08 02:52:35;;;;;;;19.75;10.45;;;-6.70;1.00;;;;;;6103260;23;20159;-89
2023/02/08 02:55:25;;;;;;;22.25;10.90;;;-6.70;1.00;;;;;;6124804;23;20034;-89
2023/02/08 02:58:15;;;;;;;20.95;10.65;;;-6.70;1.00;;;;;;6104663;23;20054;-90
2023/02/08 03:01:03;;;;;;;21.13;11.23;;;-6.80;1.00;;;;;;6104567;23;20060;-90
2023/02/08 03:03:51;;;;;;;21.17;10.93;;;-6.90;1.00;;;;;;6103865;23;20021;-89
2023/02/08 03:06:56;;;;;;;24.08;12.07;;;-6.90;1.00;;;;;;6125756;23;20372;-90
2023/02/08 03:10:09;;;;;;;25.70;10.50;;;-6.80;1.00;;;;;;6124487;23;20074;-90
2023/02/08 03:13:21;;;;;;;23.58;11.90;;;-6.80;1.00;;;;;;6105034;23;20301;-90
2023/02/08 03:16:17;;;;;;;15.38;9.13;;;-6.70;1.00;;;;;;6103840;23;20104;-91
2023/02/08 03:19:17;;;;;;;25.73;12.20;;;-6.40;1.00;;;;;;6103335;23;20025;-89
2023/02/08 03:22:20;;;;;;;26.70;12.32;;;-6.10;1.00;;;;;;6139722;23;20051;-89
2023/02/08 03:25:39;;;;;;;23.25;11.38;;;-5.80;1.00;;;;;;6139176;23;20040;-89
2023/02/08 03:28:47;;;;;;;22.80;11.48;;;-5.60;1.00;;;;;;6111173;23;20033;-89
2023/02/08 03:31:52;;;;;;;25.20;11.30;;;-5.50;1.00;;;;;;6107810;23;20026;-91
2023/02/08 03:34:52;;;;;;;19.40;10.65;;;-5.50;99.90;;;;;;6133426;23;20076;-90
2023/02/08 03:37:47;;;;;;;21.75;9.98;;;-5.60;99.90;;;;;;6134140;23;20049;-88
2023/02/08 03:40:42;;;;;;;20.27;11.02;;;-5.80;99.90;;;;;;6123689;23;20036;-88
2023/02/08 03:43:36;;;;;;;22.08;11.18;;;-5.80;99.90;;;;;;6127384;23;20033;-89
2023/02/08 03:46:37;;;;;;;18.27;10.45;;;-6.00;99.90;;;;;;6124517;23;20022;-88
2023/02/08 03:49:33;;;;;;;23.70;11.10;;;-6.10;99.90;;;;;;6103630;23;20222;-88
2023/02/08 03:52:22;;;;;;;28.15;11.23;;;-6.20;99.90;;;;;;6103598;23;20392;-89
2023/02/08 03:55:20;;;;;;;23.27;11.13;;;-6.20;99.90;;;;;;6083903;23;20030;-89
2023/02/08 03:58:59;;;;;;;22.00;11.40;;;-6.30;99.90;;;;;;6125267;23;20026;-88
2023/02/08 04:02:00;;;;;;;23.27;11.10;;;-6.20;99.90;;;;;;6128606;23;20053;-89
2023/02/08 04:04:52;;;;;;;25.37;11.43;;;-6.10;99.90;;;;;;6103870;23;20030;-87
2023/02/08 04:07:40;;;;;;;28.55;12.65;;;-5.90;99.90;;;;;;6103112;23;20349;-89
2023/02/08 04:10:27;;;;;;;22.05;11.38;;;-5.90;99.90;;;;;;6103946;23;20030;-89
2023/02/08 04:13:17;;;;;;;23.65;11.48;;;-5.90;99.90;;;;;;6104072;23;20041;-88
2023/02/08 04:16:05;;;;;;;21.85;10.90;;;-5.90;99.90;;;;;;6104062;23;20058;-89
2023/02/08 04:18:54;;;;;;;23.83;11.57;;;-5.90;99.90;;;;;;6105943;23;20037;-89
2023/02/08 04:21:46;;;;;;;28.65;11.48;;;-6.00;99.90;;;;;;6103702;23;20099;-89
2023/02/08 04:24:33;;;;;;;18.10;8.80;;;-6.00;99.90;;;;;;6126526;23;20022;-88
2023/02/08 04:27:20;;;;;;;22.00;10.75;;;-5.90;99.90;;;;;;6103265;23;20070;-89
2023/02/08 04:30:08;;;;;;;23.73;11.38;;;-5.90;99.90;;;;;;6125992;23;20107;-90
2023/02/08 04:32:57;;;;;;;24.10;11.20;;;-5.80;99.90;;;;;;6125081;23;20038;-89
2023/02/08 04:35:44;;;;;;;28.50;12.20;;;-5.80;99.90;;;;;;6125603;23;20040;-89
2023/02/08 04:38:31;;;;;;;22.23;11.20;;;-5.80;99.90;;;;;;6124017;23;20060;-90
2023/02/08 04:41:19;;;;;;;23.55;11.35;;;-5.70;99.90;;;;;;6126477;23;20030;-88
2023/02/08 04:44:06;;;;;;;19.52;10.07;;;-5.70;99.90;;;;;;6126729;23;20026;-89
2023/02/08 04:46:54;;;;;;;22.88;11.85;;;-5.70;99.90;;;;;;6104789;23;20109;-88
2023/02/08 04:49:41;;;;;;;23.85;11.40;;;-5.60;99.90;;;;;;6119525;22;20109;-90
2023/02/08 04:52:31;;;;;;;22.55;11.48;;;-5.70;99.90;;;;;;6129009;23;20033;-88
2023/02/08 04:55:19;;;;;;;25.05;10.57;;;-5.90;99.90;;;;;;6104565;23;20057;-89
2023/02/08 04:58:14;;;;;;;22.83;10.65;;;-6.00;99.90;;;;;;6122513;23;20034;-89
2023/02/08 05:04:49;;;;;;;23.55;10.80;;;-5.90;99.90;;;;;;6139139;23;20045;-88
2023/02/08 05:07:36;;;;;;;23.42;11.23;;;-5.90;99.90;;;;;;6106364;23;20025;-87
2023/02/08 05:10:25;;;;;;;22.45;10.23;;;-5.90;99.90;;;;;;6126189;23;20417;-89
2023/02/08 05:13:12;;;;;;;25.73;11.75;;;-6.00;99.90;;;;;;6125156;23;20038;-89
2023/02/08 05:16:02;;;;;;;20.48;10.15;;;-6.10;99.90;;;;;;6103853;23;20033;-87
2023/02/08 05:18:50;;;;;;;20.92;11.05;;;-6.30;99.90;;;;;;6125178;23;20444;-88
2023/02/08 05:21:38;;;;;;;22.73;11.38;;;-6.30;99.90;;;;;;6103682;23;20053;-89
2023/02/08 05:24:25;;;;;;;23.92;11.43;;;-6.30;99.90;;;;;;6102402;23;20037;-89
2023/02/08 05:27:13;;;;;;;23.23;11.15;;;-6.40;99.90;;;;;;6108135;23;20437;-87
2023/02/08 05:30:04;;;;;;;20.17;10.50;;;-6.50;99.90;;;;;;6116476;23;20061;-89
2023/02/08 05:32:52;;;;;;;26.25;11.60;;;-6.50;99.90;;;;;;6132512;23;20735;-89
2023/02/08 05:35:45;;;;;;;21.83;11.85;;;-6.60;99.90;;;;;;6131072;23;20026;-89
2023/02/08 05:38:32;;;;;;;23.75;12.57;;;-6.70;99.90;;;;;;6139460;23;20038;-88
2023/02/08 05:41:19;;;;;;;24.70;11.15;;;-6.80;99.90;;;;;;6121472;23;20467;-88
2023/02/08 05:44:07;;;;;;;27.83;12.05;;;-6.90;99.90;;;;;;6123443;22;20040;-85
2023/02/08 05:46:54;;;;;;;26.17;13.90;;;-6.90;99.90;;;;;;6142044;23;20052;-87
2023/02/08 05:49:41;;;;;;;29.13;14.32;;;-6.90;99.90;;;;;;6108907;23;20081;-87
2023/02/08 05:52:29;;;;;;;27.63;12.60;;;-6.90;99.90;;;;;;6106774;23;20026;-87
2023/02/08 05:55:16;;;;;;;27.95;12.52;;;-6.90;99.90;;;;;;6128004;23;20105;-89
2023/02/08 05:58:04;;;;;;;22.70;11.73;;;-6.90;99.90;;;;;;6105600;23;20413;-89
2023/02/08 06:00:52;;;;;;;28.52;12.52;;;-6.90;99.90;;;;;;6128903;23;20033;-89
2023/02/08 06:03:40;;;;;;;25.23;13.13;;;-6.90;99.90;;;;;;6128421;23;20042;-90
2023/02/08 06:06:27;;;;;;;25.27;13.07;;;-6.90;99.90;;;;;;6126739;23;20583;-87
2023/02/08 06:09:14;;;;;;;32.53;13.48;;;-6.70;99.90;;;;;;6107206;23;20049;-88
2023/02/08 06:12:02;;;;;;;23.52;12.38;;;-6.60;99.90;;;;;;6126926;23;20101;-87
2023/02/08 06:14:49;;;;;;;29.08;12.15;;;-6.50;99.90;;;;;;6102786;23;20030;-88
2023/02/08 06:17:37;;;;;;;30.45;13.73;;;-6.50;99.90;;;;;;6103914;23;20434;-87
2023/02/08 06:20:24;;;;;;;23.17;12.35;;;-6.60;99.90;;;;;;6105232;23;20018;-88
2023/02/08 06:23:12;;;;;;;24.33;11.23;;;-6.50;99.90;;;;;;6127427;23;20093;-89
2023/02/08 06:25:59;;;;;;;27.52;12.38;;;-6.40;99.90;;;;;;6108245;23;20026;-89
2023/02/08 06:28:46;;;;;;;20.08;10.57;;;-6.30;99.90;;;;;;6108160;23;20105;-89
2023/02/08 06:31:35;;;;;;;27.38;11.55;;;-6.40;99.90;;;;;;6108128;23;20104;-89
2023/02/08 06:34:23;;;;;;;21.15;11.45;;;-6.50;99.90;;;;;;6117564;23;20364;-90
2023/02/08 06:37:10;;;;;;;22.50;11.93;;;-6.50;99.90;;;;;;6141460;23;20037;-88
2023/02/08 06:39:58;;;;;;;27.13;11.90;;;-6.60;99.90;;;;;;6139879;23;20076;-89
2023/02/08 06:42:49;;;;;;;24.77;11.38;;;-6.50;99.90;;;;;;6126216;23;20124;-91
2023/02/08 06:45:37;;;;;;;26.95;13.18;;;-6.50;99.90;;;;;;6125998;23;20018;-89
2023/02/08 06:48:27;;;;;;;29.23;11.30;;;-6.50;99.90;;;;;;6149381;23;20014;-90
2023/02/08 06:51:17;;;;;;;26.48;11.68;;;-6.40;99.90;;;;;;6126149;23;20010;-86
2023/02/08 06:54:10;;;;;;;24.38;12.23;;;-6.30;99.90;;;;;;6140781;23;20068;-85
2023/02/08 06:56:58;;;;;;;25.83;12.35;;;-6.30;99.90;;;;;;6108260;23;20109;-85
2023/02/08 06:59:47;;;;;;;32.45;13.23;;;-6.40;99.90;;;;;;6136922;23;20078;-86
2023/02/08 07:02:35;;;;;;;28.50;13.10;;;-6.30;99.90;;;;;;6136582;23;20021;-88
2023/02/08 07:05:22;;;;;;;25.35;11.82;;;-6.30;99.90;;;;;;6139476;23;20026;-89
2023/02/08 07:08:10;;;;;;;26.00;11.73;;;-6.20;99.90;;;;;;6116415;23;20026;-86
2023/02/08 07:11:11;;;;;;;30.92;13.10;;;-6.10;99.90;;;;;;6106340;23;20030;-86
2023/02/08 07:13:58;;;;;;;29.85;12.05;;;-5.90;99.90;;;;;;6105551;23;20029;-85
2023/02/08 07:16:45;;;;;;;26.23;11.43;;;-5.80;99.90;;;;;;6115001;23;20040;-86
2023/02/08 07:19:33;;;;;;;26.98;11.77;;;-5.70;99.90;;;;;;6132312;23;20034;-86
2023/02/08 07:22:21;;;;;;;25.35;12.38;;;-5.70;99.90;;;;;;6138047;23;20106;-86
2023/02/08 07:25:08;;;;;;;23.10;11.75;;;-5.60;99.90;;;;;;6113989;23;20057;-84
2023/02/08 07:27:58;;;;;;;29.25;12.70;;;-5.50;99.90;;;;;;6137111;23;20026;-87
2023/02/08 07:30:45;;;;;;;26.30;11.98;;;-5.30;99.90;;;;;;6121423;23;20029;-84
2023/02/08 07:33:36;;;;;;;25.48;12.07;;;-5.00;99.90;;;;;;6138602;23;20029;-85
2023/02/08 07:36:23;;;;;;;22.30;10.77;;;-4.70;99.90;;;;;;6109876;23;20034;-86
2023/02/08 07:39:11;;;;;;;25.15;11.60;;;-4.30;99.90;;;;;;6131335;23;20049;-85
2023/02/08 07:42:04;;;;;;;23.95;11.65;;;-3.80;99.90;;;;;;6127253;23;20048;-85
2023/02/08 07:44:51;;;;;;;25.48;12.77;;;-3.40;99.90;;;;;;6107893;23;20022;-85
2023/02/08 07:47:41;;;;;;;24.58;11.10;;;-3.20;99.90;;;;;;6107865;23;20104;-85
2023/02/08 07:50:28;;;;;;;23.48;11.60;;;-2.90;99.90;;;;;;6087198;23;20030;-86
2023/02/08 07:53:15;;;;;;;27.65;11.63;;;-2.80;99.90;;;;;;6127978;23;20087;-85
2023/02/08 07:56:03;;;;;;;26.02;11.95;;;-2.70;99.90;;;;;;6101923;23;20037;-87
2023/02/08 07:58:56;;;;;;;29.50;13.50;;;-2.60;99.90;;;;;;6123923;23;20026;-85
2023/02/08 08:01:50;;;;;;;27.08;13.40;;;-2.40;99.90;;;;;;6104183;23;20076;-85
2023/02/08 08:04:38;;;;;;;29.08;12.75;;;-2.20;99.90;;;;;;6103097;23;20097;-86
2023/02/08 08:07:29;;;;;;;25.17;11.80;;;-2.20;99.90;;;;;;6124611;23;20026;-86
2023/02/08 08:10:16;;;;;;;24.95;12.60;;;-2.20;99.90;;;;;;6122159;23;20033;-89
2023/02/08 08:13:05;;;;;;;26.33;13.00;;;-2.20;99.90;;;;;;6104723;23;20033;-87
2023/02/08 08:15:57;;;;;;;24.52;11.93;;;-2.10;99.90;;;;;;6126802;23;20398;-88
2023/02/08 08:18:45;;;;;;;27.90;12.88;;;-2.00;99.90;;;;;;6106988;23;20084;-87
2023/02/08 08:21:33;;;;;;;25.50;12.43;;;-2.00;99.90;;;;;;6103317;23;20429;-87
2023/02/08 08:24:20;;;;;;;24.13;11.80;;;-2.10;99.90;;;;;;6105615;23;20133;-87
2023/02/08 08:27:13;;;;;;;24.38;13.30;;;-2.10;99.90;;;;;;6104668;23;20437;-87
2023/02/08 08:30:02;;;;;;;25.85;12.05;;;-2.00;99.90;;;;;;6130974;22;20040;-89
2023/02/08 08:32:50;;;;;;;24.38;12.45;;;-1.90;99.90;;;;;;6127378;23;20041;-87
2023/02/08 08:35:39;;;;;;;23.45;12.02;;;-1.70;99.90;;;;;;6122359;23;20036;-89
2023/02/08 08:38:26;;;;;;;22.02;12.52;;;-1.40;99.90;;;;;;6103423;23;20105;-86
2023/02/08 08:41:16;;;;;;;22.42;11.73;;;-1.20;99.90;;;;;;6124069;23;20038;-86
2023/02/08 08:44:04;;;;;;;28.83;13.13;;;-1.20;99.90;;;;;;6125116;23;20084;-88
2023/02/08 08:46:59;;;;;;;24.33;13.20;;;-1.20;99.90;;;;;;6101907;23;20044;-88
2023/02/08 08:49:49;;;;;;;28.25;13.20;;;-0.80;99.90;;;;;;6125531;23;20360;-87
2023/02/08 08:52:36;;;;;;;21.75;11.25;;;-0.50;99.90;;;;;;6100931;23;20034;-88
2023/02/08 08:55:24;;;;;;;21.05;11.55;;;-0.40;99.00;;;;;;6101098;23;20030;-87
2023/02/08 08:58:11;;;;;;;24.90;12.65;;;0.00;97.80;;;;;;6124241;23;20030;-87
2023/02/08 09:00:59;;;;;;;24.70;12.20;;;0.30;95.20;;;;;;6123250;23;20026;-87
2023/02/08 09:03:47;;;;;;;29.75;12.80;;;0.60;92.90;;;;;;6082600;23;20030;-85
2023/02/08 09:06:35;;;;;;;27.63;13.43;;;0.80;90.50;;;;;;6100769;23;20030;-85
2023/02/08 09:09:23;;;;;;;23.92;11.32;;;0.90;83.50;;;;;;6085478;23;20026;-86
2023/02/08 09:12:10;;;;;;;19.40;11.15;;;0.70;77.70;;;;;;6124212;23;20077;-86
2023/02/08 09:15:04;;;;;;;22.52;11.77;;;0.60;70.80;;;;;;6097885;23;20429;-84
2023/02/08 09:17:54;;;;;;;22.75;11.57;;;1.00;71.20;;;;;;6122265;23;20040;-85
2023/02/08 09:20:42;;;;;;;27.58;11.65;;;1.30;68.80;;;;;;6103641;23;20026;-84
2023/02/08 09:23:30;;;;;;;23.05;10.77;;;1.70;65.30;;;;;;6124138;23;20029;-88
2023/02/08 09:26:19;;;;;;;24.58;12.23;;;1.90;57.90;;;;;;6122571;23;20057;-87
2023/02/08 09:29:06;;;;;;;20.45;11.52;;;1.80;53.80;;;;;;6125879;23;20188;-87
2023/02/08 09:31:58;;;;;;;21.67;11.15;;;1.40;47.60;;;;;;6122825;23;20030;-87
2023/02/08 09:34:51;;;;;;;21.40;11.38;;;1.60;48.10;;;;;;6107003;23;20468;-86
2023/02/08 09:37:39;;;;;;;26.70;13.18;;;1.40;46.70;;;;;;6104133;23;20026;-89
2023/02/08 09:40:36;;;;;;;20.52;11.60;;;1.60;43.00;;;;;;6124320;23;20045;-88
2023/02/08 09:43:42;;;;;;;25.67;12.70;;;1.90;45.80;;;;;;6101452;23;20026;-88
2023/02/08 09:46:37;;;;;;;22.48;11.32;;;2.70;45.50;;;;;;6103353;23;20433;-89
2023/02/08 09:49:37;;;;;;;23.42;12.55;;;2.70;41.00;;;;;;6102770;23;20132;-89
2023/02/08 09:52:37;;;;;;;24.25;12.35;;;2.70;38.40;;;;;;6125504;23;20026;-89
2023/02/08 09:55:31;;;;;;;23.42;12.25;;;3.20;37.90;;;;;;6102934;23;20026;-89
2023/02/08 09:58:22;;;;;;;24.60;11.55;;;3.70;38.60;;;;;;6123746;23;20037;-89
2023/02/08 10:01:20;;;;;;;19.95;11.35;;;3.90;33.80;;;;;;6103753;23;20121;-88
2023/02/08 10:04:42;;;;;;;22.40;11.30;;;4.60;35.30;;;;;;6123556;23;20096;-88
2023/02/08 10:07:33;;;;;;;18.55;10.60;;;5.10;31.50;;;;;;6109860;22;20018;-86
2023/02/08 10:10:35;;;;;;;24.95;11.80;;;5.50;29.20;;;;;;6104416;23;20022;-86
2023/02/08 10:21:57;;;;;;;19.10;10.95;;;5.40;22.00;;;;;;6196043;22;20035;-88
2023/02/08 10:24:56;;;;;;;19.42;11.02;;;5.90;22.20;;;;;;6173520;23;20321;-88
2023/02/08 10:27:52;;;;;;;22.98;11.57;;;6.10;18.40;;;;;;6201653;23;20044;-91
2023/02/08 10:30:46;;;;;;;21.08;12.43;;;6.50;17.60;;;;;;6228527;23;20107;-88
2023/02/08 10:33:49;;;;;;;20.58;12.32;;;6.50;16.40;;;;;;6234279;23;20094;-90
2023/02/08 10:36:41;;;;;;;18.55;11.10;;;6.60;15.70;;;;;;6227899;23;20028;-89
2023/02/08 10:39:35;;;;;;;20.50;11.50;;;6.20;12.40;;;;;;6222364;23;20024;-91
2023/02/08 10:42:31;;;;;;;19.25;11.80;;;6.60;13.50;;;;;;6220769;23;20367;-91
2023/02/08 10:45:35;;;;;;;19.00;11.52;;;6.40;9.70;;;;;;6217777;23;20125;-85
2023/02/08 10:48:48;;;;;;;20.83;12.48;;;5.90;8.60;;;;;;6219222;23;20270;-90
2023/02/08 10:51:36;;;;;;;16.23;10.90;;;5.90;8.90;;;;;;6219685;23;20032;-89
2023/02/08 10:54:29;;;;;;;19.73;11.88;;;5.90;8.70;;;;;;6226661;23;20024;-89
2023/02/08 10:57:23;;;;;;;32.22;11.98;;;5.90;9.50;;;;;;6216438;23;20075;-88
2023/02/08 11:00:21;;;;;;;33.65;12.70;;;6.60;9.30;;;;;;6217982;23;20103;-86
2023/02/08 11:03:25;;;;;;;22.23;13.52;;;6.80;7.70;;;;;;6216324;23;20457;-86
2023/02/08 11:06:26;;;;;;;20.92;11.18;;;6.90;7.10;;;;;;6220247;23;20031;-91
2023/02/08 11:09:33;;;;;;;;;;;7.10;6.40;;;;;;6217753;23;20025;-89
2023/02/08 11:12:22;;;;;;;21.48;12.50;;;7.20;7.40;;;;;;6219400;22;19920;-87
2023/02/08 11:15:51;;;;;;;17.75;10.82;;;7.60;6.00;;;;;;6217621;23;20043;-87
2023/02/08 11:18:49;;;;;;;16.35;10.40;;;7.60;4.00;;;;;;6216583;23;20039;-89
2023/02/08 11:21:39;;;;;;;19.35;11.02;;;6.90;1.10;;;;;;6216532;23;20130;-87
2023/02/08 11:24:40;;;;;;;20.65;11.30;;;7.10;1.00;;;;;;6218255;23;20021;-89
2023/02/08 11:27:27;;;;;;;22.98;10.55;;;7.30;1.20;;;;;;6246824;23;20163;-84
2023/02/08 11:30:23;;;;;;;17.45;10.27;;;7.20;1.00;;;;;;6249234;23;20431;-84
2023/02/08 11:33:17;;;;;;;17.70;9.98;;;7.50;1.00;;;;;;6252116;22;20028;-86
2023/02/08 11:36:12;;;;;;;17.05;9.77;;;7.80;1.10;;;;;;6250562;22;20046;-91
2023/02/08 11:39:25;;;;;;;15.23;9.88;;;8.10;1.00;;;;;;6249239;22;20035;-87
2023/02/08 11:42:28;;;;;;;14.10;9.00;;;7.70;1.00;;;;;;6248850;22;20161;-89
2023/02/08 11:45:30;;;;;;;17.58;8.68;;;7.90;1.00;;;;;;6268505;22;20099;-87
2023/02/08 11:48:58;;;;;;;22.33;9.40;;;8.10;1.00;;;;;;6249712;22;20024;-85
2023/02/08 11:51:45;;;;;;;16.35;9.30;;;8.30;1.00;;;;;;6247846;23;20035;-86
2023/02/08 11:54:40;;;;;;;16.85;9.10;;;8.40;1.00;;;;;;6249368;23;20173;-86
2023/02/08 11:57:31;;;;;;;15.00;8.75;;;9.30;1.00;;;;;;6271437;22;20423;-89
2023/02/08 12:00:25;;;;;;;12.82;7.75;;;9.40;1.00;;;;;;6250104;22;20095;-86
2023/02/08 12:03:24;;;;;;;16.75;8.18;;;9.10;1.00;;;;;;6249107;22;20048;-88
2023/02/08 12:06:41;;;;;;;12.57;8.07;;;8.60;1.00;;;;;;6250034;22;20026;-86
2023/02/08 12:10:10;;;;;;;15.07;8.52;;;7.70;1.00;;;;;;6249730;22;20024;-85
2023/02/08 12:13:24;;;;;;;12.77;8.27;;;7.70;1.00;;;;;;6187216;23;20028;-87
2023/02/08 12:16:33;;;;;;;14.20;8.50;;;8.20;1.00;;;;;;6187668;23;20088;-88
2023/02/08 12:19:35;;;;;;;11.63;7.50;;;8.60;1.00;;;;;;6248280;23;20035;-89
2023/02/08 12:22:29;;;;;;;11.40;7.93;;;8.40;1.00;;;;;;6249058;23;20024;-86
2023/02/08 12:25:43;;;;;;;14.82;7.78;;;8.90;1.00;;;;;;6229228;23;20076;-86
2023/02/08 12:29:09;;;;;;;12.20;7.20;;;9.10;1.00;;;;;;6211494;23;20023;-88
2023/02/08 12:32:06;;;;;;;13.73;7.80;;;8.10;1.00;;;;;;6125177;23;20029;-88
2023/02/08 12:35:09;;;;;;;14.48;8.50;;;8.50;1.00;;;;;;6126129;22;20034;-89
2023/02/08 12:41:43;;;;;;;13.23;8.23;;;8.30;1.00;;;;;;6124981;23;20026;-87
2023/02/08 12:45:00;;;;;;;12.55;7.70;;;7.80;1.00;;;;;;6210555;22;20033;-89
2023/02/08 12:48:05;;;;;;;13.23;8.32;;;8.40;1.00;;;;;;6207804;23;20451;-86
2023/02/08 12:51:03;;;;;;;12.10;7.53;;;8.60;1.00;;;;;;6207815;23;20022;-86
2023/02/08 12:53:58;;;;;;;13.38;7.22;;;8.40;1.00;;;;;;6125562;23;20105;-86
2023/02/08 12:56:47;;;;;;;13.20;7.20;;;9.20;1.00;;;;;;6128617;23;20068;-86
2023/02/08 13:00:22;;;;;;;13.43;7.50;;;9.00;1.00;;;;;;6126888;23;20026;-86
2023/02/08 13:03:34;;;;;;;16.05;8.68;;;8.70;1.00;;;;;;6193733;23;20047;-86
2023/02/08 13:06:28;;;;;;;16.35;7.68;;;8.20;1.00;;;;;;6213069;22;20601;-87
2023/02/08 13:09:49;;;;;;;15.73;8.30;;;8.30;1.00;;;;;;6187604;23;20026;-86
2023/02/08 13:13:00;;;;;;;11.00;6.93;;;8.40;1.00;;;;;;6211428;22;20030;-87
2023/02/08 13:16:36;;;;;;;11.18;6.75;;;9.20;1.00;;;;;;6210008;22;20034;-87
2023/02/08 13:19:31;;;;;;;12.70;6.88;;;8.70;1.00;;;;;;6185696;23;20048;-89
2023/02/08 13:22:20;;;;;;;13.13;7.43;;;9.00;1.00;;;;;;6206918;23;20049;-89
2023/02/08 13:25:28;;;;;;;14.45;8.15;;;9.30;1.00;;;;;;6125624;22;20025;-88
2023/02/08 13:28:22;;;;;;;12.48;7.10;;;9.10;1.00;;;;;;6210285;22;20030;-89
2023/02/08 13:31:18;;;;;;;13.30;7.78;;;9.30;1.00;;;;;;6124454;23;20026;-88
2023/02/08 13:34:21;;;;;;;12.63;7.43;;;9.50;1.00;;;;;;6210674;22;20053;-86
2023/02/08 13:37:23;;;;;;;12.40;7.38;;;9.90;1.00;;;;;;6125396;22;20077;-85
2023/02/08 13:40:26;;;;;;;8.45;5.75;;;10.00;1.00;;;;;;6126220;23;20400;-86
2023/02/08 13:43:40;;;;;;;8.48;5.20;;;9.30;1.00;;;;;;6124508;23;20053;-85
2023/02/08 13:46:34;;;;;;;;;;;8.90;1.00;;;;;;6121798;23;20103;-86
2023/02/08 13:49:40;;;;;;;8.75;5.65;;;8.70;1.00;;;;;;6202580;23;20315;-86
2023/02/08 13:52:33;;;;;;;7.68;5.30;;;8.90;1.00;;;;;;6123785;22;20034;-88
2023/02/08 13:55:56;;;;;;;7.45;5.05;;;8.60;1.00;;;;;;6126463;22;20131;-85
2023/02/08 13:58:49;;;;;;;9.25;5.60;;;9.00;1.00;;;;;;6210692;23;20342;-84
2023/02/08 14:02:11;;;;;;;9.63;6.00;;;7.80;1.00;;;;;;6209992;23;20126;-88
2023/02/08 14:05:44;;;;;;;8.48;5.35;;;7.50;1.00;;;;;;6210780;23;20037;-90
2023/02/08 14:08:57;;;;;;;10.20;5.65;;;7.50;1.00;;;;;;6126638;23;20034;-87
2023/02/08 14:11:53;;;;;;;10.68;5.45;;;7.20;1.00;;;;;;6128731;22;20036;-89
2023/02/08 14:14:40;;;;;;;10.55;6.07;;;7.20;1.00;;;;;;6216819;22;20123;-89
2023/02/08 14:17:29;;;;;;;9.27;6.10;;;7.40;1.00;;;;;;6127105;23;20034;-86
2023/02/08 14:20:32;;;;;;;9.35;5.97;;;7.60;1.00;;;;;;6129891;22;20325;-89
2023/02/08 14:23:26;;;;;;;11.73;6.38;;;7.70;1.00;;;;;;6211294;23;20059;-87
2023/02/08 14:26:22;;;;;;;13.35;6.60;;;7.50;1.00;;;;;;6211105;23;20026;-89
2023/02/08 14:29:22;;;;;;;10.90;7.07;;;7.60;1.00;;;;;;6126056;23;20029;-89
2023/02/08 14:32:25;;;;;;;13.30;6.63;;;8.20;1.00;;;;;;6209852;23;20026;-90
2023/02/08 14:35:17;;;;;;;13.40;7.13;;;8.60;1.00;;;;;;6230020;22;20091;-88
2023/02/08 14:38:22;;;;;;;14.02;8.15;;;7.60;1.00;;;;;;6211242;23;20060;-86
2023/02/08 14:41:10;;;;;;;12.32;7.72;;;7.70;1.00;;;;;;6130725;22;20444;-89
2023/02/08 14:43:57;;;;;;;13.32;8.40;;;7.10;1.00;;;;;;6135754;23;20022;-87
2023/02/08 14:46:47;;;;;;;15.15;8.82;;;7.10;1.00;;;;;;6144959;23;20014;-86
2023/02/08 14:49:40;;;;;;;13.27;8.30;;;7.30;1.00;;;;;;6140059;23;20026;-87
2023/02/08 14:52:29;;;;;;;14.57;8.50;;;7.40;1.00;;;;;;6221864;23;20511;-86
2023/02/08 14:55:25;;;;;;;14.80;8.88;;;7.50;1.00;;;;;;6144696;22;20030;-84
2023/02/08 14:58:30;;;;;;;15.27;9.40;;;7.20;1.00;;;;;;6146195;22;20022;-84
2023/02/08 15:01:42;;;;;;;13.95;8.68;;;7.20;1.00;;;;;;6147351;22;20021;-84
2023/02/08 15:04:40;;;;;;;14.90;9.23;;;7.10;1.00;;;;;;6147341;22;20052;-85
2023/02/08 15:07:49;;;;;;;15.40;8.15;;;7.10;1.00;;;;;;6227434;23;20026;-85
2023/02/08 15:10:41;;;;;;;16.35;9.38;;;7.20;1.00;;;;;;6148134;22;20018;-86
2023/02/08 15:13:30;;;;;;;15.15;8.95;;;6.80;1.00;;;;;;6150000;22;20049;-86
2023/02/08 15:16:18;;;;;;;18.80;9.70;;;6.50;1.00;;;;;;6232941;22;20044;-86
2023/02/08 15:19:17;;;;;;;16.23;9.18;;;6.60;1.00;;;;;;6146026;23;20026;-84
2023/02/08 15:22:25;;;;;;;17.45;9.52;;;6.40;1.00;;;;;;6233239;23;20018;-84